createdAt,value
2023-04-22T00:00:47.046Z,13.13
2023-04-22T00:03:16.231Z,12.96
2023-04-22T00:05:44.959Z,12.16
2023-04-22T00:08:12.551Z,12.38
2023-04-22T00:10:40.330Z,12.29
2023-04-22T00:13:07.735Z,12.28
2023-04-22T00:15:35.706Z,12.20
2023-04-22T00:18:07.389Z,12.68
2023-04-22T00:20:36.894Z,12.86
2023-04-22T00:23:06.743Z,12.95
2023-04-22T00:25:34.253Z,12.68
2023-04-22T00:28:01.595Z,12.77
2023-04-22T00:30:29.566Z,12.81
2023-04-22T00:32:58.434Z,12.70
2023-04-22T00:35:25.937Z,12.90
2023-04-22T00:37:53.565Z,12.84
2023-04-22T00:40:21.897Z,12.87
2023-04-22T00:42:49.713Z,12.95
2023-04-22T00:45:21.214Z,12.95
2023-04-22T00:47:49.107Z,12.88
2023-04-22T00:50:17.065Z,12.88
2023-04-22T00:52:45.015Z,13.05
2023-04-22T00:55:12.610Z,12.97
2023-04-22T00:57:40.389Z,13.06
2023-04-22T01:00:09.921Z,13.03
2023-04-22T01:02:38.878Z,13.05
2023-04-22T01:05:09.460Z,13.04
2023-04-22T01:07:41.104Z,13.15
2023-04-22T01:10:09.300Z,13.37
2023-04-22T01:12:36.684Z,13.38
2023-04-22T01:15:05.041Z,13.27
2023-04-22T01:17:35.914Z,13.21
2023-04-22T01:20:10.155Z,13.23
2023-04-22T01:22:40.785Z,13.19
2023-04-22T01:25:09.315Z,13.19
2023-04-22T01:27:38.782Z,13.19
2023-04-22T01:30:07.134Z,13.08
2023-04-22T01:32:36.242Z,12.87
2023-04-22T01:35:04.104Z,13.00
2023-04-22T01:37:31.994Z,13.00
2023-04-22T01:39:59.399Z,12.66
2023-04-22T01:42:26.814Z,12.92
2023-04-22T01:44:54.594Z,12.73
2023-04-22T01:47:21.944Z,12.55
2023-04-22T01:49:49.522Z,12.45
2023-04-22T01:52:17.445Z,12.63
2023-04-22T01:54:45.002Z,12.59
2023-04-22T01:57:16.384Z,12.51
2023-04-22T01:59:45.401Z,12.63
2023-04-22T02:02:12.826Z,12.67
2023-04-22T02:04:40.633Z,12.54
2023-04-22T02:07:08.152Z,12.40
2023-04-22T02:09:35.699Z,12.54
2023-04-22T02:12:04.160Z,12.35
2023-04-22T02:14:31.981Z,12.57
2023-04-22T02:17:03.508Z,12.52
2023-04-22T02:19:31.055Z,12.53
2023-04-22T02:22:02.121Z,12.55
2023-04-22T02:24:30.078Z,12.54
2023-04-22T02:26:58.853Z,12.62
2023-04-22T02:29:26.189Z,12.32
2023-04-22T02:31:58.132Z,12.32
2023-04-22T02:34:26.210Z,12.19
2023-04-22T02:36:54.400Z,12.35
2023-04-22T02:39:22.906Z,12.43
2023-04-22T02:41:51.454Z,12.18
2023-04-22T02:44:19.327Z,12.07
2023-04-22T02:46:47.301Z,12.19
2023-04-22T02:49:20.910Z,12.09
2023-04-22T02:51:49.273Z,12.32
2023-04-22T02:54:17.260Z,12.13
2023-04-22T02:56:44.790Z,11.91
2023-04-22T02:59:12.597Z,11.97
2023-04-22T03:01:40.250Z,12.36
2023-04-22T03:04:10.028Z,12.12
2023-04-22T03:06:38.019Z,12.16
2023-04-22T03:09:05.882Z,12.24
2023-04-22T03:11:33.347Z,12.16
2023-04-22T03:14:01.026Z,12.25
2023-04-22T03:16:28.475Z,12.24
2023-04-22T03:18:56.306Z,12.12
2023-04-22T03:21:24.063Z,12.22
2023-04-22T03:23:51.322Z,11.98
2023-04-22T03:26:19.215Z,12.23
2023-04-22T03:28:46.986Z,12.05
2023-04-22T03:31:16.608Z,12.20
2023-04-22T03:33:46.327Z,12.11
2023-04-22T03:36:15.879Z,12.12
2023-04-22T03:38:45.033Z,12.18
2023-04-22T03:41:13.171Z,12.33
2023-04-22T03:43:41.640Z,12.34
2023-04-22T03:46:09.437Z,12.31
2023-04-22T03:48:37.929Z,12.21
2023-04-22T03:51:06.851Z,12.30
2023-04-22T03:53:35.063Z,12.26
2023-04-22T03:56:02.610Z,12.19
2023-04-22T03:58:33.919Z,12.12
2023-04-22T04:01:02.250Z,12.05
2023-04-22T04:03:31.289Z,11.86
2023-04-22T04:05:59.530Z,12.00
2023-04-22T04:08:28.006Z,11.87
2023-04-22T04:10:56.078Z,11.95
2023-04-22T04:13:24.181Z,11.94
2023-04-22T04:15:56.629Z,11.78
2023-04-22T04:18:27.162Z,11.73
2023-04-22T04:21:00.579Z,11.83
2023-04-22T04:23:29.338Z,11.93
2023-04-22T04:25:57.470Z,11.88
2023-04-22T04:28:25.598Z,12.00
2023-04-22T04:30:55.740Z,12.17
2023-04-22T04:33:23.898Z,12.19
2023-04-22T04:35:59.340Z,12.45
2023-04-22T04:38:34.484Z,12.34
2023-04-22T04:41:04.103Z,12.49
2023-04-22T04:43:32.508Z,12.54
2023-04-22T04:46:01.300Z,12.44
2023-04-22T04:48:36.524Z,12.30
2023-04-22T04:51:06.386Z,12.19
2023-04-22T04:53:36.092Z,12.25
2023-04-22T04:56:04.044Z,12.30
2023-04-22T04:58:33.034Z,12.31
2023-04-22T05:01:07.673Z,12.15
2023-04-22T05:03:36.800Z,12.41
2023-04-22T05:06:05.692Z,12.61
2023-04-22T05:08:39.923Z,12.75
2023-04-22T05:11:10.091Z,12.92
2023-04-22T05:13:40.113Z,13.21
2023-04-22T05:16:14.766Z,13.32
2023-04-22T05:18:42.674Z,13.33
2023-04-22T05:21:16.089Z,13.22
2023-04-22T05:23:46.012Z,13.31
2023-04-22T05:26:16.738Z,13.28
2023-04-22T05:28:46.905Z,13.33
2023-04-22T05:31:17.941Z,13.34
2023-04-22T05:33:46.571Z,13.52
2023-04-22T05:36:18.791Z,13.80
2023-04-22T05:38:47.862Z,14.31
2023-04-22T05:41:21.143Z,14.57
2023-04-22T05:43:48.988Z,14.71
2023-04-22T05:46:23.528Z,14.79
2023-04-22T05:48:57.058Z,15.04
2023-04-22T05:51:27.973Z,15.02
2023-04-22T05:54:00.812Z,15.28
2023-04-22T05:56:29.206Z,15.40
2023-04-22T05:58:56.952Z,15.64
2023-04-22T06:01:30.824Z,15.81
2023-04-22T06:04:01.909Z,16.09
2023-04-22T06:06:35.293Z,16.30
2023-04-22T06:09:07.436Z,16.39
2023-04-22T06:11:41.653Z,16.57
2023-04-22T06:14:10.160Z,16.75
2023-04-22T06:16:44.409Z,16.91
2023-04-22T06:19:15.398Z,16.82
2023-04-22T06:21:54.025Z,17.26
2023-04-22T06:24:25.091Z,17.44
2023-04-22T06:26:58.285Z,17.55
2023-04-22T06:29:31.281Z,17.65
2023-04-22T06:32:00.637Z,17.52
2023-04-22T06:34:30.759Z,17.73
2023-04-22T06:36:58.557Z,17.91
2023-04-22T06:39:27.173Z,17.87
2023-04-22T06:42:01.742Z,17.94
2023-04-22T06:44:32.818Z,17.89
2023-04-22T06:47:03.275Z,18.27
2023-04-22T06:49:38.873Z,18.10
2023-04-22T06:54:43.850Z,18.58
2023-04-22T06:57:22.701Z,18.90
2023-04-22T06:59:51.015Z,18.84
2023-04-22T07:05:07.107Z,19.12
2023-04-22T07:07:38.857Z,19.88
2023-04-22T07:10:07.459Z,19.98
2023-04-22T07:12:39.326Z,19.76
2023-04-22T07:15:16.763Z,19.65
2023-04-22T07:17:46.995Z,19.37
2023-04-22T07:20:16.062Z,19.74
2023-04-22T07:22:43.671Z,19.71
2023-04-22T07:25:14.965Z,19.59
2023-04-22T07:27:43.604Z,20.36
2023-04-22T07:30:13.800Z,19.96
2023-04-22T07:32:45.444Z,19.87
2023-04-22T07:35:15.734Z,20.34
2023-04-22T07:37:53.692Z,20.44
2023-04-22T07:40:22.301Z,20.47
2023-04-22T07:42:52.959Z,20.58
2023-04-22T07:45:24.180Z,19.95
2023-04-22T07:47:52.890Z,20.35
2023-04-22T07:50:33.832Z,20.87
2023-04-22T07:53:11.053Z,21.17
2023-04-22T07:55:42.762Z,21.32
2023-04-22T07:58:11.798Z,21.45
2023-04-22T08:00:39.865Z,21.40
2023-04-22T08:03:08.450Z,21.75
2023-04-22T08:05:36.603Z,21.85
2023-04-22T08:08:10.750Z,21.75
2023-04-22T08:10:41.912Z,21.78
2023-04-22T08:15:45.844Z,21.86
2023-04-22T08:18:15.724Z,22.31
2023-04-22T08:20:44.996Z,22.09
2023-04-22T08:23:19.176Z,22.16
2023-04-22T08:25:46.922Z,21.99
2023-04-22T08:28:16.027Z,22.10
2023-04-22T08:33:19.974Z,22.31
2023-04-22T08:35:47.798Z,22.73
2023-04-22T08:38:15.978Z,22.59
2023-04-22T08:40:45.898Z,22.93
2023-04-22T08:48:29.511Z,21.99
2023-04-22T08:51:04.033Z,22.53
2023-04-22T08:53:31.986Z,22.33
2023-04-22T08:56:06.738Z,22.65
2023-04-22T08:58:42.898Z,22.98
2023-04-22T09:01:11.170Z,22.83
2023-04-22T09:03:40.866Z,23.24
2023-04-22T09:06:14.767Z,22.93
2023-04-22T09:08:44.210Z,23.26
2023-04-22T09:11:12.044Z,22.93
2023-04-22T09:13:46.843Z,23.02
2023-04-22T09:16:19.033Z,23.16
2023-04-22T09:18:48.281Z,22.99
2023-04-22T09:21:28.332Z,23.32
2023-04-22T09:24:04.769Z,22.87
2023-04-22T09:26:32.464Z,22.94
2023-04-22T09:29:09.469Z,23.11
2023-04-22T09:31:42.001Z,23.40
2023-04-22T09:34:11.099Z,23.97
2023-04-22T09:36:41.054Z,24.08
2023-04-22T09:41:49.829Z,23.06
2023-04-22T09:44:21.983Z,23.12
2023-04-22T09:46:51.762Z,23.53
2023-04-22T09:49:21.229Z,24.25
2023-04-22T09:51:51.025Z,23.96
2023-04-22T09:54:19.984Z,23.83
2023-04-22T09:56:53.876Z,23.86
2023-04-22T09:59:23.939Z,23.23
2023-04-22T10:02:04.307Z,23.58
2023-04-22T10:04:35.057Z,23.32
2023-04-22T10:07:04.061Z,22.98
2023-04-22T10:09:40.298Z,23.55
2023-04-22T10:12:18.446Z,24.47
2023-04-22T10:14:54.765Z,24.34
2023-04-22T10:17:26.448Z,24.10
2023-04-22T10:19:59.282Z,23.82
2023-04-22T10:22:33.534Z,24.03
2023-04-22T10:25:09.322Z,23.98
2023-04-22T10:27:39.009Z,23.98
2023-04-22T10:30:10.829Z,24.64
2023-04-22T10:32:42.652Z,24.97
2023-04-22T10:35:13.203Z,25.35
2023-04-22T10:37:49.249Z,25.64
2023-04-22T10:40:19.004Z,25.25
2023-04-22T10:42:50.665Z,24.74
2023-04-22T10:45:22.107Z,24.80
2023-04-22T10:47:49.942Z,24.84
2023-04-22T10:50:28.043Z,24.70
2023-04-22T10:52:58.594Z,24.80
2023-04-22T10:58:05.347Z,24.13
2023-04-22T11:00:53.231Z,23.90
2023-04-22T11:03:26.940Z,24.16
2023-04-22T11:06:15.852Z,24.07
2023-04-22T11:08:47.311Z,24.11
2023-04-22T11:11:22.788Z,23.99
2023-04-22T11:13:51.932Z,23.61
2023-04-22T11:16:23.022Z,23.90
2023-04-22T11:18:58.955Z,23.87
2023-04-22T11:21:31.789Z,24.17
2023-04-22T11:24:02.933Z,24.02
2023-04-22T11:26:36.336Z,24.09
2023-04-22T11:29:03.990Z,23.85
2023-04-22T11:31:33.897Z,23.59
2023-04-22T11:34:04.124Z,23.64
2023-04-22T11:36:32.825Z,23.97
2023-04-22T11:39:02.297Z,23.96
2023-04-22T11:41:31.711Z,23.80
2023-04-22T11:44:03.056Z,23.77
2023-04-22T11:46:40.866Z,23.31
2023-04-22T11:49:18.796Z,23.61
2023-04-22T11:51:56.630Z,23.80
2023-04-22T11:54:38.965Z,24.12
2023-04-22T11:57:08.631Z,24.50
2023-04-22T11:59:44.119Z,24.20
2023-04-22T12:02:13.401Z,24.53
2023-04-22T12:04:45.786Z,24.49
2023-04-22T12:07:16.536Z,24.27
2023-04-22T12:09:45.031Z,23.80
2023-04-22T12:12:13.778Z,24.09
2023-04-22T12:14:46.167Z,23.97
2023-04-22T12:17:22.447Z,24.36
2023-04-22T12:19:55.799Z,23.97
2023-04-22T12:22:29.119Z,23.77
2023-04-22T12:25:03.987Z,23.78
2023-04-22T12:27:32.816Z,23.75
2023-04-22T12:30:02.799Z,24.00
2023-04-22T12:32:41.912Z,24.12
2023-04-22T12:35:10.069Z,24.26
2023-04-22T12:37:41.432Z,23.91
2023-04-22T12:40:09.972Z,24.12
2023-04-22T12:42:44.869Z,23.74
2023-04-22T12:45:16.474Z,23.73
2023-04-22T12:47:45.553Z,23.73
2023-04-22T12:50:17.325Z,23.48
2023-04-22T12:52:45.970Z,23.74
2023-04-22T12:55:24.823Z,24.26
2023-04-22T12:57:56.877Z,24.53
2023-04-22T13:00:25.860Z,24.98
2023-04-22T13:03:02.128Z,24.28
2023-04-22T13:05:31.990Z,24.65
2023-04-22T13:08:06.422Z,24.51
2023-04-22T13:10:35.977Z,24.63
2023-04-22T13:13:18.581Z,24.66
2023-04-22T13:15:54.322Z,25.22
2023-04-22T13:18:24.146Z,25.08
2023-04-22T13:21:02.247Z,25.27
2023-04-22T13:23:32.768Z,25.70
2023-04-22T13:26:02.287Z,25.17
2023-04-22T13:28:31.960Z,25.27
2023-04-22T13:31:04.925Z,25.80
2023-04-22T13:33:33.679Z,25.50
2023-04-22T13:36:07.982Z,25.45
2023-04-22T13:38:35.812Z,25.29
2023-04-22T13:41:10.038Z,25.61
2023-04-22T13:43:45.843Z,26.23
2023-04-22T13:46:16.808Z,25.99
2023-04-22T13:48:48.837Z,25.73
2023-04-22T13:51:21.040Z,25.02
2023-04-22T13:53:49.138Z,25.19
2023-04-22T13:56:17.129Z,25.18
2023-04-22T13:58:48.168Z,24.87
2023-04-22T14:01:17.880Z,24.98
2023-04-22T14:03:52.161Z,25.07
2023-04-22T14:06:20.601Z,25.18
2023-04-22T14:08:48.651Z,24.93
2023-04-22T14:11:17.049Z,25.04
2023-04-22T14:16:26.960Z,25.04
2023-04-22T14:18:56.195Z,24.47
2023-04-22T14:21:26.536Z,24.56
2023-04-22T14:23:57.110Z,24.64
2023-04-22T14:26:24.956Z,24.55
2023-04-22T14:28:54.856Z,24.45
2023-04-22T14:31:24.973Z,24.16
2023-04-22T14:33:54.846Z,24.36
2023-04-22T14:36:23.863Z,24.59
2023-04-22T14:38:52.187Z,24.48
2023-04-22T14:41:26.805Z,24.22
2023-04-22T14:43:54.485Z,23.88
2023-04-22T14:46:26.945Z,24.31
2023-04-22T14:49:06.309Z,24.47
2023-04-22T14:51:36.607Z,24.30
2023-04-22T14:54:06.790Z,24.55
2023-04-22T14:56:35.133Z,24.65
2023-04-22T14:59:04.791Z,24.69
2023-04-22T15:01:36.137Z,24.95
2023-04-22T15:04:08.231Z,24.90
2023-04-22T15:06:38.217Z,25.19
2023-04-22T15:09:09.074Z,24.89
2023-04-22T15:11:42.967Z,24.67
2023-04-22T15:14:17.431Z,24.07
2023-04-22T15:16:45.852Z,24.41
2023-04-22T15:19:14.867Z,24.93
2023-04-22T15:21:49.212Z,25.20
2023-04-22T15:24:16.922Z,24.96
2023-04-22T15:26:47.251Z,24.74
2023-04-22T15:29:21.887Z,24.83
2023-04-22T15:31:52.454Z,24.61
2023-04-22T15:34:25.386Z,24.80
2023-04-22T15:39:39.951Z,24.55
2023-04-22T15:42:09.222Z,24.24
2023-04-22T15:44:39.309Z,23.41
2023-04-22T15:47:09.969Z,23.69
2023-04-22T15:49:43.837Z,23.88
2023-04-22T15:52:14.134Z,23.79
2023-04-22T15:54:45.504Z,23.89
2023-04-22T15:57:15.496Z,23.33
2023-04-22T15:59:43.320Z,23.65
2023-04-22T16:02:18.003Z,23.98
2023-04-22T16:04:48.055Z,23.85
2023-04-22T16:07:17.928Z,24.08
2023-04-22T16:09:47.414Z,24.03
2023-04-22T16:12:17.011Z,24.26
2023-04-22T16:17:27.248Z,24.44
2023-04-22T16:19:56.949Z,24.47
2023-04-22T16:22:27.043Z,23.74
2023-04-22T16:24:58.958Z,23.82
2023-04-22T16:27:28.234Z,24.10
2023-04-22T16:30:02.594Z,23.69
2023-04-22T16:32:38.866Z,23.85
2023-04-22T16:35:09.932Z,23.61
2023-04-22T16:37:39.013Z,24.04
2023-04-22T16:42:46.782Z,23.88
2023-04-22T16:45:14.783Z,23.53
2023-04-22T16:47:47.287Z,23.71
2023-04-22T16:50:16.975Z,23.73
2023-04-22T16:52:56.129Z,23.72
2023-04-22T16:55:30.103Z,23.77
2023-04-22T16:58:04.106Z,23.80
2023-04-22T17:03:15.090Z,24.01
2023-04-22T17:05:42.904Z,23.87
2023-04-22T17:08:17.164Z,23.86
2023-04-22T17:10:47.974Z,23.59
2023-04-22T17:13:20.338Z,23.72
2023-04-22T17:15:49.927Z,23.61
2023-04-22T17:18:21.151Z,23.10
2023-04-22T17:20:58.610Z,23.21
2023-04-22T17:23:27.274Z,23.03
2023-04-22T17:25:58.967Z,23.26
2023-04-22T17:28:30.881Z,23.27
2023-04-22T17:31:04.228Z,23.36
2023-04-22T17:33:40.192Z,23.08
2023-04-22T17:36:11.810Z,23.12
2023-04-22T17:38:41.996Z,23.00
2023-04-22T17:41:15.146Z,22.99
2023-04-22T17:46:24.893Z,22.58
2023-04-22T17:51:39.972Z,22.41
2023-04-22T17:54:12.425Z,22.44
2023-04-22T17:56:40.704Z,22.32
2023-04-22T17:59:19.861Z,21.97
2023-04-22T18:04:31.913Z,21.67
2023-04-22T18:07:01.264Z,21.52
2023-04-22T18:09:30.660Z,21.43
2023-04-22T18:11:59.035Z,21.39
2023-04-22T18:14:29.084Z,21.15
2023-04-22T18:17:03.564Z,21.22
2023-04-22T18:19:37.941Z,21.09
2023-04-22T18:22:07.128Z,20.88
2023-04-22T18:24:36.430Z,20.67
2023-04-22T18:27:06.236Z,20.57
2023-04-22T18:29:35.868Z,20.36
2023-04-22T18:37:35.076Z,20.05
2023-04-22T18:40:06.038Z,20.03
2023-04-22T18:42:45.829Z,19.98
2023-04-22T18:45:23.281Z,19.74
2023-04-22T18:48:00.980Z,19.77
2023-04-22T18:50:30.016Z,19.79
2023-04-22T18:53:06.924Z,19.57
2023-04-22T18:55:40.348Z,19.52
2023-04-22T18:58:09.414Z,19.41
2023-04-22T19:00:41.847Z,19.33
2023-04-22T19:03:12.000Z,19.26
2023-04-22T19:05:42.906Z,19.07
2023-04-22T19:08:11.346Z,18.99
2023-04-22T19:10:41.963Z,18.81
2023-04-22T19:13:22.301Z,18.71
2023-04-22T19:16:00.142Z,18.55
2023-04-22T19:18:34.300Z,18.58
2023-04-22T19:21:08.006Z,18.54
2023-04-22T19:23:36.826Z,18.50
2023-04-22T19:26:11.487Z,18.32
2023-04-22T19:28:42.252Z,18.16
2023-04-22T19:31:11.611Z,18.07
2023-04-22T19:33:46.013Z,18.04
2023-04-22T19:36:22.254Z,17.97
2023-04-22T19:38:50.145Z,17.94
2023-04-22T19:41:17.907Z,17.81
2023-04-22T19:43:47.892Z,17.88
2023-04-22T19:49:02.838Z,17.54
2023-04-22T19:51:35.075Z,17.47
2023-04-22T19:54:06.900Z,17.21
2023-04-22T19:56:36.027Z,17.25
2023-04-22T19:59:09.110Z,17.21
2023-04-22T20:01:57.009Z,17.12
2023-04-22T20:04:26.142Z,17.04
2023-04-22T20:06:55.841Z,17.04
2023-04-22T20:09:27.840Z,16.84
2023-04-22T20:12:00.787Z,16.96
2023-04-22T20:14:35.918Z,16.87
2023-04-22T20:17:06.655Z,16.53
2023-04-22T20:19:37.652Z,16.46
2023-04-22T20:22:09.279Z,16.60
2023-04-22T20:24:41.890Z,16.52
2023-04-22T20:27:17.118Z,16.34
2023-04-22T20:29:46.395Z,16.29
2023-04-22T20:32:14.574Z,16.21
2023-04-22T20:34:45.558Z,16.17
2023-04-22T20:37:20.029Z,16.27
2023-04-22T20:39:50.193Z,16.16
2023-04-22T20:42:20.852Z,16.12
2023-04-22T20:44:49.305Z,16.04
2023-04-22T20:47:26.957Z,15.77
2023-04-22T20:49:55.803Z,15.79
2023-04-22T20:52:23.819Z,15.73
2023-04-22T20:54:56.886Z,15.70
2023-04-22T20:57:31.456Z,15.56
2023-04-22T20:59:59.253Z,15.83
2023-04-22T21:02:29.075Z,15.41
2023-04-22T21:04:59.965Z,15.41
2023-04-22T21:07:34.946Z,15.39
2023-04-22T21:10:02.825Z,15.43
2023-04-22T21:12:34.966Z,15.40
2023-04-22T21:15:04.449Z,15.32
2023-04-22T21:17:34.911Z,15.24
2023-04-22T21:20:09.874Z,15.30
2023-04-22T21:22:47.545Z,15.06
2023-04-22T21:25:21.544Z,15.24
2023-04-22T21:27:49.463Z,15.22
2023-04-22T21:30:17.900Z,15.46
2023-04-22T21:32:46.196Z,15.29
2023-04-22T21:35:14.259Z,15.02
2023-04-22T21:37:42.374Z,15.09
2023-04-22T21:40:10.955Z,14.95
2023-04-22T21:42:42.858Z,14.70
2023-04-22T21:45:13.930Z,14.81
2023-04-22T21:47:42.239Z,14.86
2023-04-22T21:50:10.329Z,14.68
2023-04-22T21:52:39.792Z,14.63
2023-04-22T21:55:08.438Z,14.41
2023-04-22T21:57:39.903Z,14.44
2023-04-22T22:00:18.783Z,14.48
2023-04-22T22:02:49.057Z,14.47
2023-04-22T22:05:22.977Z,14.40
2023-04-22T22:07:55.686Z,14.39
2023-04-22T22:10:23.108Z,14.33
2023-04-22T22:12:53.101Z,14.41
2023-04-22T22:15:20.730Z,14.40
2023-04-22T22:17:49.776Z,14.33
2023-04-22T22:20:20.707Z,14.38
2023-04-22T22:22:48.933Z,14.23
2023-04-22T22:25:16.688Z,14.16
2023-04-22T22:27:49.010Z,14.15
2023-04-22T22:30:17.382Z,14.17
2023-04-22T22:32:44.733Z,13.99
2023-04-22T22:35:12.963Z,14.03
2023-04-22T22:37:41.255Z,13.84
2023-04-22T22:40:09.190Z,13.94
2023-04-22T22:42:37.178Z,13.79
2023-04-22T22:45:06.241Z,13.83
2023-04-22T22:47:33.792Z,13.76
2023-04-22T22:50:02.490Z,13.62
2023-04-22T22:52:30.718Z,13.47
2023-04-22T22:54:58.210Z,13.57
2023-04-22T22:57:27.194Z,13.50
2023-04-22T22:59:55.405Z,13.51
2023-04-22T23:02:23.535Z,13.42
2023-04-22T23:04:51.813Z,13.42
2023-04-22T23:07:22.006Z,13.38
2023-04-22T23:09:51.475Z,13.39
2023-04-22T23:12:18.707Z,13.67
2023-04-22T23:14:46.563Z,13.51
2023-04-22T23:17:14.269Z,13.51
2023-04-22T23:19:41.847Z,13.32
2023-04-22T23:22:14.315Z,13.07
2023-04-22T23:24:43.359Z,13.30
2023-04-22T23:27:12.333Z,13.32
2023-04-22T23:29:43.957Z,13.20
2023-04-22T23:32:13.701Z,13.27
2023-04-22T23:34:43.953Z,13.14
2023-04-22T23:37:13.765Z,13.18
2023-04-22T23:39:42.698Z,13.14
2023-04-22T23:42:10.565Z,13.32
2023-04-22T23:44:38.634Z,13.21
2023-04-22T23:47:06.632Z,12.96
2023-04-22T23:49:33.905Z,13.12
2023-04-22T23:52:01.448Z,12.95
2023-04-22T23:54:30.394Z,12.81
2023-04-22T23:56:58.472Z,13.00
2023-04-22T23:59:26.956Z,12.82
